createdAt,value
2022-09-28T00:01:46.357Z,1.73
2022-09-28T00:04:33.462Z,1.42
2022-09-28T00:07:19.273Z,1.70
2022-09-28T00:10:05.284Z,2.22
2022-09-28T00:12:52.190Z,1.23
2022-09-28T00:15:38.655Z,1.70
2022-09-28T00:18:24.140Z,1.58
2022-09-28T00:21:14.927Z,1.98
2022-09-28T00:24:15.776Z,1.63
2022-09-28T00:27:02.856Z,3.03
2022-09-28T00:29:48.510Z,1.75
2022-09-28T00:32:34.231Z,1.38
2022-09-28T00:35:19.729Z,1.77
2022-09-28T00:38:05.350Z,1.58
2022-09-28T00:40:50.964Z,1.23
2022-09-28T00:43:36.484Z,1.42
2022-09-28T00:46:40.727Z,1.73
2022-09-28T00:49:34.299Z,2.15
2022-09-28T00:52:27.482Z,1.35
2022-09-28T00:55:18.133Z,1.63
2022-09-28T00:58:08.252Z,1.25
2022-09-28T01:00:56.350Z,1.30
2022-09-28T01:03:45.396Z,1.55
2022-09-28T01:06:34.478Z,1.30
2022-09-28T01:09:21.865Z,1.02
2022-09-28T01:12:08.108Z,1.58
2022-09-28T01:14:53.500Z,1.30
2022-09-28T01:17:54.089Z,1.85
2022-09-28T01:21:15.638Z,1.05
2022-09-28T01:24:35.205Z,1.00
2022-09-28T01:27:52.182Z,1.20
2022-09-28T01:30:50.955Z,1.17
2022-09-28T01:33:42.210Z,1.55
2022-09-28T01:36:34.982Z,1.20
2022-09-28T01:39:35.006Z,1.17
2022-09-28T01:42:27.313Z,1.20
2022-09-28T01:45:36.182Z,1.20
2022-09-28T01:48:46.825Z,2.70
2022-09-28T01:51:51.032Z,0.98
2022-09-28T01:54:42.038Z,1.50
2022-09-28T01:58:11.311Z,1.52
2022-09-28T02:01:02.435Z,1.02
2022-09-28T02:04:13.824Z,1.27
2022-09-28T02:07:05.285Z,1.27
2022-09-28T02:09:58.407Z,1.10
2022-09-28T02:12:43.799Z,1.17
2022-09-28T02:15:40.403Z,1.60
2022-09-28T02:18:26.360Z,1.20
2022-09-28T02:21:29.552Z,1.20
2022-09-28T02:24:27.196Z,1.33
2022-09-28T02:27:14.821Z,0.98
2022-09-28T02:30:01.466Z,0.95
2022-09-28T02:32:51.009Z,0.95
2022-09-28T02:35:38.744Z,0.85
2022-09-28T02:38:24.206Z,0.98
2022-09-28T02:41:17.667Z,1.00
2022-09-28T02:44:19.066Z,0.82
2022-09-28T02:47:37.340Z,1.00
2022-09-28T02:50:50.816Z,0.90
2022-09-28T02:53:59.011Z,0.70
2022-09-28T02:56:56.073Z,0.68
2022-09-28T03:00:12.183Z,0.70
2022-09-28T03:03:31.231Z,0.60
2022-09-28T03:06:59.718Z,0.60
2022-09-28T03:10:23.815Z,0.60
2022-09-28T03:13:10.058Z,0.52
2022-09-28T03:16:09.082Z,0.60
2022-09-28T03:18:55.877Z,0.40
2022-09-28T03:21:42.002Z,0.57
2022-09-28T03:24:28.193Z,0.57
2022-09-28T03:27:14.497Z,0.40
2022-09-28T03:30:00.190Z,1.05
2022-09-28T03:32:45.942Z,0.50
2022-09-28T03:35:32.159Z,0.60
2022-09-28T03:38:18.744Z,0.57
2022-09-28T03:41:05.213Z,0.45
2022-09-28T03:43:54.149Z,0.57
2022-09-28T03:46:41.342Z,0.35
2022-09-28T03:49:28.303Z,0.63
2022-09-28T03:52:14.475Z,0.32
2022-09-28T03:54:59.920Z,0.60
2022-09-28T03:57:54.960Z,0.60
2022-09-28T04:00:40.731Z,0.50
2022-09-28T04:03:26.338Z,0.35
2022-09-28T04:06:12.735Z,0.47
2022-09-28T04:08:58.638Z,0.40
2022-09-28T04:12:02.963Z,0.50
2022-09-28T04:14:52.195Z,0.50
2022-09-28T04:17:40.225Z,0.50
2022-09-28T04:20:33.182Z,0.50
2022-09-28T04:23:22.908Z,0.43
2022-09-28T04:26:17.805Z,0.50
2022-09-28T04:29:18.788Z,0.40
2022-09-28T04:32:15.908Z,0.57
2022-09-28T04:35:01.400Z,0.40
2022-09-28T04:37:47.031Z,0.40
2022-09-28T04:40:32.453Z,0.73
2022-09-28T04:43:18.131Z,0.50
2022-09-28T04:46:06.231Z,0.32
2022-09-28T04:49:00.121Z,0.50
2022-09-28T04:52:18.266Z,0.30
2022-09-28T04:55:07.048Z,0.60
2022-09-28T04:57:53.108Z,0.40
2022-09-28T05:00:39.401Z,0.45
2022-09-28T05:03:38.582Z,0.40
2022-09-28T05:06:44.772Z,0.50
2022-09-28T05:09:34.928Z,0.60
2022-09-28T05:12:24.419Z,0.55
2022-09-28T05:15:11.086Z,0.60
2022-09-28T05:17:56.876Z,0.55
2022-09-28T05:21:16.453Z,0.50
2022-09-28T05:24:07.291Z,0.40
2022-09-28T05:26:54.774Z,0.60
2022-09-28T05:29:40.849Z,0.60
2022-09-28T05:32:55.602Z,0.88
2022-09-28T05:36:01.015Z,0.60
2022-09-28T05:38:47.575Z,0.80
2022-09-28T05:41:32.925Z,0.60
2022-09-28T05:44:19.351Z,0.63
2022-09-28T05:47:06.598Z,0.73
2022-09-28T05:49:52.651Z,0.70
2022-09-28T05:52:38.824Z,1.05
2022-09-28T05:55:25.457Z,0.88
2022-09-28T05:58:11.253Z,0.50
2022-09-28T06:00:57.889Z,0.63
2022-09-28T06:03:43.363Z,0.38
2022-09-28T06:06:28.871Z,0.43
2022-09-28T06:09:15.977Z,0.40
2022-09-28T06:12:20.912Z,0.40
2022-09-28T06:15:08.713Z,0.50
2022-09-28T06:18:02.999Z,0.30
2022-09-28T06:21:16.150Z,0.40
2022-09-28T06:24:04.994Z,0.70
2022-09-28T06:26:50.807Z,0.40
2022-09-28T06:29:38.514Z,0.40
2022-09-28T06:32:24.345Z,1.00
2022-09-28T06:35:10.982Z,0.60
2022-09-28T06:37:57.964Z,0.70
2022-09-28T06:40:44.129Z,0.50
2022-09-28T06:43:34.227Z,0.50
2022-09-28T06:46:32.258Z,0.52
2022-09-28T06:49:38.019Z,0.80
2022-09-28T06:52:36.018Z,0.60
2022-09-28T06:55:48.974Z,0.60
2022-09-28T06:58:34.673Z,0.68
2022-09-28T07:01:21.048Z,0.70
2022-09-28T07:04:35.862Z,1.00
2022-09-28T07:07:57.420Z,2.40
2022-09-28T07:11:01.355Z,3.75
2022-09-28T07:14:07.333Z,0.95
2022-09-28T07:17:11.875Z,0.88
2022-09-28T07:20:03.753Z,0.70
2022-09-28T07:23:15.839Z,0.88
2022-09-28T07:26:45.369Z,0.80
2022-09-28T07:29:44.979Z,1.00
2022-09-28T07:32:49.553Z,1.40
2022-09-28T07:35:53.241Z,1.00
2022-09-28T07:38:41.132Z,0.65
2022-09-28T07:41:32.588Z,0.73
2022-09-28T07:44:19.918Z,0.80
2022-09-28T07:47:08.006Z,1.17
2022-09-28T07:50:17.853Z,1.13
2022-09-28T07:53:12.117Z,0.90
2022-09-28T07:56:19.592Z,0.70
2022-09-28T07:59:25.637Z,0.88
2022-09-28T08:02:32.310Z,1.13
2022-09-28T08:05:18.036Z,1.40
2022-09-28T08:08:03.626Z,1.20
2022-09-28T08:10:50.996Z,1.60
2022-09-28T08:14:00.599Z,1.73
2022-09-28T08:17:15.791Z,1.90
2022-09-28T08:20:23.979Z,1.40
2022-09-28T08:23:11.542Z,1.42
2022-09-28T08:25:59.069Z,1.42
2022-09-28T08:28:46.714Z,1.10
2022-09-28T08:31:51.054Z,1.35
2022-09-28T08:34:48.793Z,1.17
2022-09-28T08:37:55.682Z,1.77
2022-09-28T08:41:26.458Z,1.30
2022-09-28T08:44:25.040Z,1.30
2022-09-28T08:48:18.411Z,1.33
2022-09-28T08:51:45.637Z,1.10
2022-09-28T08:55:04.471Z,1.30
2022-09-28T08:58:10.062Z,1.45
2022-09-28T09:00:56.020Z,1.40
2022-09-28T09:03:46.966Z,1.70
2022-09-28T09:07:07.641Z,1.25
2022-09-28T09:10:12.164Z,1.67
2022-09-28T09:13:00.692Z,1.80
2022-09-28T09:16:01.531Z,1.40
2022-09-28T09:19:55.115Z,1.02
2022-09-28T09:23:20.803Z,1.08
2022-09-28T09:26:35.955Z,1.27
2022-09-28T09:29:31.492Z,1.13
2022-09-28T09:32:20.435Z,0.90
2022-09-28T09:35:34.277Z,1.50
2022-09-28T09:38:47.050Z,1.80
2022-09-28T09:42:10.217Z,1.10
2022-09-28T09:45:35.582Z,1.30
2022-09-28T09:48:48.697Z,1.17
2022-09-28T09:51:48.022Z,1.40
2022-09-28T09:54:40.686Z,1.05
2022-09-28T09:57:39.556Z,1.38
2022-09-28T10:00:48.892Z,1.30
2022-09-28T10:03:49.197Z,1.58
2022-09-28T10:06:38.627Z,1.30
2022-09-28T10:09:31.945Z,1.60
2022-09-28T10:12:33.566Z,1.50
2022-09-28T10:15:31.376Z,4.30
2022-09-28T10:18:52.275Z,2.72
2022-09-28T10:22:01.833Z,1.38
2022-09-28T10:24:56.818Z,1.23
2022-09-28T10:27:46.081Z,1.38
2022-09-28T10:30:44.489Z,1.55
2022-09-28T10:33:32.923Z,1.55
2022-09-28T10:36:18.400Z,1.48
2022-09-28T10:39:06.067Z,1.58
2022-09-28T10:41:52.364Z,1.00
2022-09-28T10:44:59.104Z,1.13
2022-09-28T10:47:55.776Z,1.35
2022-09-28T10:50:42.281Z,1.50
2022-09-28T10:53:31.556Z,1.13
2022-09-28T10:56:27.191Z,1.30
2022-09-28T10:59:28.320Z,1.27
2022-09-28T11:02:37.967Z,1.08
2022-09-28T11:05:29.949Z,1.70
2022-09-28T11:08:22.539Z,1.15
2022-09-28T11:11:16.670Z,1.10
2022-09-28T11:14:21.358Z,0.93
2022-09-28T11:17:32.553Z,1.50
2022-09-28T11:20:43.495Z,1.48
2022-09-28T11:23:31.719Z,1.30
2022-09-28T11:26:34.241Z,1.20
2022-09-28T11:29:30.516Z,1.00
2022-09-28T11:32:43.603Z,0.90
2022-09-28T11:36:13.198Z,1.02
2022-09-28T11:42:18.405Z,1.20
2022-09-28T11:45:21.138Z,1.10
2022-09-28T11:48:25.702Z,1.30
2022-09-28T11:51:18.053Z,1.00
2022-09-28T11:54:14.561Z,1.20
2022-09-28T11:57:04.641Z,1.17
2022-09-28T12:00:08.330Z,1.63
2022-09-28T12:03:10.424Z,2.20
2022-09-28T12:06:03.897Z,1.60
2022-09-28T12:08:56.302Z,1.40
2022-09-28T12:12:15.652Z,1.33
2022-09-28T12:15:26.728Z,1.40
2022-09-28T12:18:25.999Z,1.55
2022-09-28T12:21:46.833Z,1.38
2022-09-28T12:24:49.024Z,1.30
2022-09-28T12:27:50.568Z,2.67
2022-09-28T12:30:40.507Z,2.53
2022-09-28T12:33:26.290Z,1.70
2022-09-28T12:36:44.602Z,2.50
2022-09-28T12:39:56.386Z,2.30
2022-09-28T12:43:06.291Z,1.80
2022-09-28T12:46:13.409Z,3.00
2022-09-28T12:53:29.630Z,2.45
2022-09-28T12:56:39.678Z,2.72
2022-09-28T12:59:38.403Z,2.80
2022-09-28T13:02:45.039Z,1.88
2022-09-28T13:05:56.916Z,2.03
2022-09-28T13:09:22.509Z,1.77
2022-09-28T13:12:32.391Z,2.13
2022-09-28T13:15:27.405Z,2.63
2022-09-28T13:18:19.178Z,2.10
2022-09-28T13:21:23.538Z,1.70
2022-09-28T13:24:31.043Z,1.85
2022-09-28T13:27:42.334Z,1.70
2022-09-28T13:30:27.728Z,1.50
2022-09-28T13:33:31.105Z,1.23
2022-09-28T13:36:28.629Z,3.95
2022-09-28T13:39:52.763Z,4.15
2022-09-28T13:42:53.215Z,3.00
2022-09-28T13:45:54.043Z,4.32
2022-09-28T13:48:54.767Z,3.00
2022-09-28T13:52:02.765Z,2.60
2022-09-28T13:54:57.097Z,1.80
2022-09-28T13:57:56.779Z,1.52
2022-09-28T14:00:56.666Z,1.80
2022-09-28T14:04:13.018Z,1.63
2022-09-28T14:07:21.502Z,1.60
2022-09-28T14:10:43.636Z,1.35
2022-09-28T14:14:01.256Z,1.65
2022-09-28T14:16:46.605Z,1.60
2022-09-28T14:19:34.512Z,3.60
2022-09-28T14:23:01.652Z,2.55
2022-09-28T14:26:02.401Z,1.98
2022-09-28T14:29:10.985Z,2.40
2022-09-28T14:31:59.042Z,1.90
2022-09-28T14:34:48.004Z,2.20
2022-09-28T14:37:58.464Z,1.50
2022-09-28T14:41:09.990Z,1.50
2022-09-28T14:44:08.577Z,3.63
2022-09-28T14:47:33.087Z,3.85
2022-09-28T14:50:23.919Z,3.70
2022-09-28T14:53:19.540Z,2.97
2022-09-28T14:56:08.780Z,1.30
2022-09-28T14:58:57.926Z,1.55
2022-09-28T15:01:53.599Z,2.60
2022-09-28T15:04:47.157Z,2.65
2022-09-28T15:07:49.556Z,1.83
2022-09-28T15:10:39.106Z,1.70
2022-09-28T15:13:27.354Z,1.77
2022-09-28T15:16:15.905Z,1.55
2022-09-28T15:19:25.480Z,2.00
2022-09-28T15:22:18.153Z,1.90
2022-09-28T15:25:15.163Z,1.48
2022-09-28T15:28:13.570Z,1.17
2022-09-28T15:31:01.566Z,1.30
2022-09-28T15:34:17.522Z,1.40
2022-09-28T15:37:09.053Z,1.17
2022-09-28T15:39:56.002Z,1.10
2022-09-28T15:42:41.499Z,1.30
2022-09-28T15:45:33.963Z,2.83
2022-09-28T15:48:33.037Z,5.10
2022-09-28T15:51:21.430Z,3.10
2022-09-28T15:54:09.183Z,2.65
2022-09-28T15:56:54.923Z,1.83
2022-09-28T15:59:43.872Z,1.40
2022-09-28T16:02:30.113Z,1.33
2022-09-28T16:05:35.619Z,1.17
2022-09-28T16:08:43.134Z,1.90
2022-09-28T16:11:37.896Z,1.42
2022-09-28T16:14:26.058Z,1.20
2022-09-28T16:17:19.197Z,1.30
2022-09-28T16:20:24.685Z,1.65
2022-09-28T16:23:15.948Z,2.88
2022-09-28T16:26:05.217Z,2.72
2022-09-28T16:28:54.861Z,2.60
2022-09-28T16:31:45.573Z,2.70
2022-09-28T16:34:31.043Z,2.50
2022-09-28T16:37:31.838Z,2.08
2022-09-28T16:40:17.584Z,2.22
2022-09-28T16:43:06.497Z,2.35
2022-09-28T16:46:04.430Z,2.00
2022-09-28T16:48:50.799Z,2.30
2022-09-28T16:51:40.012Z,1.50
2022-09-28T16:54:44.360Z,1.48
2022-09-28T16:57:29.772Z,1.10
2022-09-28T17:00:20.564Z,1.10
2022-09-28T17:03:16.210Z,1.08
2022-09-28T17:06:08.407Z,1.10
2022-09-28T17:08:56.884Z,1.00
2022-09-28T17:11:42.154Z,1.45
2022-09-28T17:14:27.634Z,0.80
2022-09-28T17:17:16.948Z,1.10
2022-09-28T17:20:22.436Z,0.95
2022-09-28T17:23:08.614Z,0.90
2022-09-28T17:25:56.277Z,1.00
2022-09-28T17:28:42.115Z,0.80
2022-09-28T17:31:31.084Z,1.50
2022-09-28T17:34:17.143Z,0.90
2022-09-28T17:37:02.834Z,0.80
2022-09-28T17:39:48.522Z,0.90
2022-09-28T17:42:34.093Z,0.82
2022-09-28T17:45:20.204Z,0.80
2022-09-28T17:48:15.686Z,0.80
2022-09-28T17:51:02.002Z,4.03
2022-09-28T17:53:48.365Z,1.90
2022-09-28T17:56:35.818Z,1.00
2022-09-28T17:59:21.903Z,1.90
2022-09-28T18:02:11.030Z,1.00
2022-09-28T18:04:57.004Z,1.05
2022-09-28T18:07:47.285Z,0.98
2022-09-28T18:10:33.784Z,0.65
2022-09-28T18:13:19.184Z,0.90
2022-09-28T18:16:05.850Z,1.10
2022-09-28T18:18:51.489Z,1.10
2022-09-28T18:21:36.999Z,0.95
2022-09-28T18:24:22.512Z,1.20
2022-09-28T18:27:08.511Z,0.90
2022-09-28T18:29:54.143Z,1.48
2022-09-28T18:32:39.596Z,1.27
2022-09-28T18:35:25.084Z,1.10
2022-09-28T18:38:10.605Z,1.58
2022-09-28T18:40:56.548Z,1.60
2022-09-28T18:43:48.727Z,1.55
2022-09-28T18:46:36.666Z,1.52
2022-09-28T18:49:23.188Z,2.67
2022-09-28T18:52:08.931Z,2.50
2022-09-28T18:54:54.926Z,1.02
2022-09-28T18:57:42.315Z,1.30
2022-09-28T19:00:28.078Z,1.33
2022-09-28T19:03:14.387Z,1.88
2022-09-28T19:05:59.982Z,1.30
2022-09-28T19:08:50.948Z,1.30
2022-09-28T19:11:36.487Z,1.40
2022-09-28T19:14:21.875Z,1.60
2022-09-28T19:17:09.049Z,1.42
2022-09-28T19:19:55.020Z,1.10
2022-09-28T19:22:40.748Z,1.35
2022-09-28T19:25:26.391Z,1.45
2022-09-28T19:28:11.896Z,1.40
2022-09-28T19:33:51.672Z,1.35
2022-09-28T19:36:37.525Z,1.58
2022-09-28T19:39:23.448Z,1.45
2022-09-28T19:42:09.088Z,1.00
2022-09-28T19:44:55.074Z,1.30
2022-09-28T19:47:40.817Z,1.17
2022-09-28T19:50:26.398Z,1.23
2022-09-28T19:53:12.670Z,1.25
2022-09-28T19:56:01.385Z,1.42
2022-09-28T19:58:47.442Z,1.48
2022-09-28T20:01:34.433Z,1.00
2022-09-28T20:04:22.873Z,1.42
2022-09-28T20:07:08.761Z,1.48
2022-09-28T20:09:55.211Z,1.30
2022-09-28T20:12:42.349Z,1.30
2022-09-28T20:15:28.153Z,1.40
2022-09-28T20:18:14.049Z,1.30
2022-09-28T20:21:05.602Z,1.65
2022-09-28T20:23:53.597Z,1.30
2022-09-28T20:26:39.265Z,1.67
2022-09-28T20:29:25.252Z,1.20
2022-09-28T20:32:12.369Z,1.48
2022-09-28T20:34:58.771Z,1.58
2022-09-28T20:37:44.945Z,1.77
2022-09-28T20:40:30.862Z,1.63
2022-09-28T20:43:16.335Z,1.58
2022-09-28T20:46:04.939Z,1.35
2022-09-28T20:48:54.826Z,2.20
2022-09-28T20:51:40.560Z,2.00
2022-09-28T20:54:26.368Z,2.05
2022-09-28T20:57:19.456Z,1.90
2022-09-28T21:00:06.333Z,1.50
2022-09-28T21:02:53.181Z,1.50
2022-09-28T21:05:38.534Z,1.48
2022-09-28T21:08:25.678Z,1.83
2022-09-28T21:11:15.643Z,1.77
2022-09-28T21:14:03.109Z,1.42
2022-09-28T21:16:49.016Z,1.48
2022-09-28T21:19:34.556Z,1.60
2022-09-28T21:22:20.124Z,1.50
2022-09-28T21:25:05.936Z,1.45
2022-09-28T21:27:53.051Z,2.10
2022-09-28T21:30:39.719Z,1.90
2022-09-28T21:33:26.414Z,1.77
2022-09-28T21:36:12.108Z,2.30
2022-09-28T21:38:57.752Z,1.67
2022-09-28T21:41:44.028Z,1.40
2022-09-28T21:44:29.537Z,1.45
2022-09-28T21:47:15.186Z,1.50
2022-09-28T21:50:01.106Z,1.73
2022-09-28T21:52:46.718Z,1.70
2022-09-28T21:55:32.136Z,1.30
2022-09-28T21:58:17.526Z,1.80
2022-09-28T22:01:03.119Z,1.80
2022-09-28T22:03:50.854Z,1.45
2022-09-28T22:06:36.639Z,1.58
2022-09-28T22:09:22.204Z,2.42
2022-09-28T22:12:08.186Z,1.60
2022-09-28T22:14:54.188Z,1.73
2022-09-28T22:17:40.166Z,1.85
2022-09-28T22:20:25.630Z,2.05
2022-09-28T22:23:11.220Z,1.90
2022-09-28T22:26:07.078Z,1.95
2022-09-28T22:28:55.311Z,1.77
2022-09-28T22:31:41.769Z,1.65
2022-09-28T22:34:30.683Z,1.85
2022-09-28T22:37:16.323Z,1.92
2022-09-28T22:40:02.135Z,1.88
2022-09-28T22:42:49.552Z,2.00
2022-09-28T22:45:35.686Z,2.08
2022-09-28T22:48:21.018Z,1.60
2022-09-28T22:51:08.279Z,1.60
2022-09-28T22:53:54.320Z,1.50
2022-09-28T22:56:39.794Z,1.70
2022-09-28T22:59:25.327Z,1.80
2022-09-28T23:02:10.859Z,1.77
2022-09-28T23:04:56.247Z,1.90
2022-09-28T23:07:41.713Z,1.48
2022-09-28T23:10:27.589Z,1.85
2022-09-28T23:13:13.200Z,1.70
2022-09-28T23:16:07.902Z,1.67
2022-09-28T23:18:55.567Z,1.65
2022-09-28T23:21:40.946Z,1.27
2022-09-28T23:24:26.376Z,1.63
2022-09-28T23:27:12.895Z,1.40
2022-09-28T23:29:58.816Z,1.90
2022-09-28T23:32:44.904Z,1.70
2022-09-28T23:35:30.902Z,1.73
2022-09-28T23:38:18.266Z,1.75
2022-09-28T23:41:06.149Z,1.85
2022-09-28T23:43:51.399Z,1.60
2022-09-28T23:46:37.224Z,1.58
2022-09-28T23:49:23.110Z,1.55
2022-09-28T23:52:08.853Z,1.48
2022-09-28T23:54:54.140Z,1.38
2022-09-28T23:57:43.845Z,1.58
